x

Lake Nipissing (45152) Wave Buoy

10:00am - Thu 2nd Jul 2015 All times are CDT. -5 hours from GMT.

  • Sig Wave height 0.7ft
  • Peak Period 2s
  • Wind
    7mph, 9mph gusts
  • Sea Temp 66°f
  • Sea Pressure 1015.4mb
  • Lake Nipissing
  • Lake Nipissing

More Historic Weather Station data

Upgrade to MSW Pro to gain access to the past 30 days of data for over 8000 Wavebouys and Weather Stations around the globe.

Join Pro

Comparision Forecast

View Surf forecast
   
Thu 07/02 10:00am 0.7ft 2s 7 9 mph 1015.4mb 66f
9:00am 0.7ft 3s 9 11 mph 1015.5mb 66f
Wed 07/01 11:00pm 0.7ft 2s 11 13 mph 1012.7mb 66f
10:00pm 0.7ft 2s 9 11 mph 1012.9mb 66f
9:00pm 1ft 2s 9 13 mph 1013.1mb 66f
8:00pm 1ft 3s 11 18 mph 1012.7mb 66f
7:00pm 1ft 3s 18 20 mph 1012.2mb 67f
6:00pm 1.3ft 3s 16 20 mph 1011.6mb 67f
5:00pm 1.3ft 3s 18 22 mph 1010.9mb 67f
4:00pm 1ft 3s 16 20 mph 1010.5mb 67f
3:00pm 1ft 3s 18 20 mph 1010mb 67f
2:00pm 1ft 3s 18 20 mph 1009.7mb 67f
1:00pm 1.3ft 3s 16 20 mph 1009.4mb 67f
12:00pm 1.3ft 3s 16 18 mph 1009mb 67f
11:00am 1ft 3s 18 20 mph 1008.8mb 67f
10:00am 1ft 3s 16 20 mph 1008.4mb 67f
9:00am 1ft 3s 13 18 mph 1008.1mb 67f
8:00am 1ft 2s 18 22 mph 1008mb 67f
7:00am 1.3ft 3s 18 20 mph 1007.8mb 67f
2:00am  -   -  13
mph
1007.6mb -
12:00am 1.3ft 3s 16 18 mph 1007.9mb 68f
Tue 06/30 11:00pm 1ft 3s 13 16 mph 1008.3mb 68f
10:00pm 0.7ft 2s 13 18 mph 1008.5mb 68f
9:00pm 0.3ft 2s 16 18 mph 1009mb 68f
8:00pm 0.3ft 2s 11 13 mph 1008.7mb 69f
7:00pm 0.3ft 2s 4
mph
1008.4mb 70f
5:00pm  -  2s 9 13 mph 1007.7mb 71f
4:00pm  -  3s 4
mph
1007.6mb 71f
3:00pm  -  2s 4
mph
1008.2mb 70f
2:00pm  -  3s 7 9 mph 1008.4mb 69f
1:00pm  -  3s 4
mph
1009.1mb 68f
12:00pm  -  3s 7
mph
1009.6mb 68f
11:00am  -  2s 7 9 mph 1010.2mb 68f
10:00am  -  3s 7 9 mph 1010.6mb 68f
9:00am  -  4s 4 7 mph 1010.7mb 67f
8:00am  -  2s 4 7 mph 1011.2mb 67f
7:00am  -  3s  -  mph 1011mb 66f
6:00am  -  2s 4 7 mph 1010.7mb 66f
5:00am 0.3ft 3s 4 7 mph 1010.5mb 66f
3:00am 0.3ft 2s 7 9 mph 1010.2mb 66f
2:00am 0.3ft 2s 9 11 mph 1010.4mb 66f
1:00am 0.3ft 2s 7 9 mph 1010.5mb 66f
12:00am 0.3ft 2s 9 11 mph 1010.5mb 66f
Mon 06/29 11:00pm 0.7ft 2s 9 13 mph 1010.5mb 66f
10:00pm 0.3ft 2s 13 16 mph 1010.1mb 66f
9:00pm 0.3ft 2s 11 13 mph 1010mb 66f
8:00pm 0.7ft 2s 9 11 mph 1009.6mb 67f
7:00pm 0.7ft 2s 9 13 mph 1009.4mb 67f
6:00pm 0.7ft 2s 13 16 mph 1008.7mb 67f
5:00pm 0.7ft 2s 11 16 mph 1008.7mb 67f
4:00pm 0.7ft 2s 13 16 mph 1008.8mb 67f
3:00pm 0.3ft 2s 11 16 mph 1009.2mb 67f
2:00pm 0.3ft 2s 11 18 mph 1009.5mb 67f
1:00pm 0.3ft 3s 11 16 mph 1009.9mb 68f
12:00pm  -  2s 7 9 mph 1010.2mb 69f
11:00am  -  3s 2 4 mph 1010.6mb 68f
10:00am  -  2s 4 7 mph 1010.9mb 67f
9:00am  -  2s 4 7 mph 1011.2mb 66f
8:00am  -  3s 4 7 mph 1011.2mb 66f
7:00am 0.3ft 3s 7 9 mph 1010.9mb 65f
6:00am 0.3ft 2s 7 9 mph 1010.7mb 65f
12:00am 0.7ft 2s 4 7 mph 1009.6mb 65f
Sun 06/28 11:00pm 0.3ft 2s 9 11 mph 1010mb 65f
10:00pm 1ft 2s 7 9 mph 1010.4mb 65f
9:00pm 1ft 2s 13 16 mph 1010.7mb 65f
8:00pm 1.3ft 3s 11 16 mph 1009.9mb 65f
7:00pm 1ft 2s 16 18 mph 1009.6mb 65f
6:00pm 1.3ft 3s 11 16 mph 1009.2mb 66f
5:00pm 0.7ft 2s 13 18 mph 1009mb 66f